Time;durP1;ratioP1;P1;durP2;ratioP2;P2;SDS_P1;SDS_P2;PMS_P1;PMS_P2;Temp;Humidity;BMP_temperature;BMP_pressure;BME280_temperature;BME280_humidity;BME280_pressure;Samples;Min_cycle;Max_cycle;Signal;HPM_P1;HPM_P2
2022/04/22 00:01:40;;;;;;;3.67;3.00;;;;;;;9.21;100.00;99644.59;7393339;19;20019;-52
2022/04/22 00:04:06;;;;;;;3.13;1.42;;;;;;;9.11;100.00;99647.44;7393060;19;20006;-52
2022/04/22 00:06:32;;;;;;;6.15;2.35;;;;;;;9.10;100.00;99645.09;7392731;19;20155;-52
2022/04/22 00:08:58;;;;;;;3.88;1.90;;;;;;;9.18;100.00;99654.66;7392970;19;20046;-52
2022/04/22 00:11:31;;;;;;;2.63;1.58;;;;;;;9.25;100.00;99650.78;7391669;19;20459;-52
2022/04/22 00:14:00;;;;;;;6.45;2.25;;;;;;;9.30;100.00;99641.75;7392455;19;20027;-52
2022/04/22 00:16:27;;;;;;;4.45;2.17;;;;;;;9.30;100.00;99641.75;7390919;19;20017;-52
2022/04/22 00:18:58;;;;;;;11.55;2.75;;;;;;;9.27;100.00;99649.03;7393650;19;20011;-52
2022/04/22 00:21:26;;;;;;;2.33;1.63;;;;;;;9.18;100.00;99640.00;7397715;19;20029;-52
2022/04/22 00:23:53;;;;;;;2.70;1.67;;;;;;;9.26;100.00;99641.19;7398045;19;20018;-52
2022/04/22 00:26:20;;;;;;;8.23;2.85;;;;;;;9.27;100.00;99642.72;7391477;19;20713;-52
2022/04/22 00:28:46;;;;;;;4.63;2.45;;;;;;;9.26;100.00;99639.19;7393617;19;20098;-52
2022/04/22 00:31:13;;;;;;;6.45;2.92;;;;;;;9.25;100.00;99634.09;7391815;19;20015;-52
2022/04/22 00:33:41;;;;;;;8.48;2.22;;;;;;;9.26;100.00;99635.63;7390461;19;20029;-52
2022/04/22 00:36:08;;;;;;;13.60;2.50;;;;;;;9.34;100.00;99637.56;7394779;19;20027;-52
2022/04/22 00:38:34;;;;;;;4.60;3.50;;;;;;;9.38;100.00;99631.81;7392592;19;20037;-52
2022/04/22 00:41:00;;;;;;;12.15;2.88;;;;;;;9.36;100.00;99631.53;7392858;19;20498;-52
2022/04/22 00:43:27;;;;;;;4.57;3.55;;;;;;;9.30;100.00;99631.44;7391511;19;20033;-52
2022/04/22 00:45:55;;;;;;;4.72;2.53;;;;;;;9.32;100.00;99639.28;7391615;19;20361;-52
2022/04/22 00:48:22;;;;;;;9.82;3.15;;;;;;;9.34;100.00;99636.78;7397917;19;20029;-52
2022/04/22 00:50:49;;;;;;;10.55;4.60;;;;;;;9.37;100.00;99633.88;7393414;19;20002;-52
2022/04/22 00:53:16;;;;;;;5.60;3.08;;;;;;;9.38;100.00;99637.38;7392250;19;20040;-52
2022/04/22 00:55:44;;;;;;;6.72;2.92;;;;;;;9.33;100.00;99636.06;7389159;19;20015;-52
2022/04/22 00:58:12;;;;;;;2.58;1.35;;;;;;;9.27;100.00;99631.63;7389295;19;20098;-53
2022/04/22 01:00:41;;;;;;;8.23;2.38;;;;;;;9.29;100.00;99629.13;7389898;19;20359;-52
2022/04/22 01:03:08;;;;;;;8.02;3.53;;;;;;;9.30;100.00;99630.66;7391742;19;20074;-52
2022/04/22 01:11:06;;;;;;;10.32;5.22;;;;;;;9.39;100.00;99622.25;7397350;19;20038;-52
2022/04/22 01:13:32;;;;;;;7.93;4.13;;;;;;;9.40;100.00;99623.81;7398855;19;20565;-53
2022/04/22 01:15:59;;;;;;;6.43;2.95;;;;;;;9.39;100.00;99613.94;7397687;19;20021;-53
2022/04/22 01:18:25;;;;;;;7.93;3.00;;;;;;;9.43;100.00;99611.72;7400131;19;20478;-52
2022/04/22 01:20:51;;;;;;;9.63;3.30;;;;;;;9.44;100.00;99602.16;7399318;19;20082;-53
2022/04/22 01:23:17;;;;;;;12.73;6.30;;;;;;;9.40;100.00;99601.59;7396097;19;20044;-53
2022/04/22 01:25:43;;;;;;;9.20;3.80;;;;;;;9.43;100.00;99603.41;7399193;19;20006;-53
2022/04/22 01:28:10;;;;;;;5.30;2.40;;;;;;;9.46;100.00;99594.91;7397872;19;20038;-53
2022/04/22 01:30:37;;;;;;;16.52;4.43;;;;;;;9.46;100.00;99594.13;7397713;19;20014;-53
2022/04/22 01:33:03;;;;;;;7.28;3.20;;;;;;;9.44;100.00;99593.81;7391616;19;20335;-53
2022/04/22 01:35:29;;;;;;;10.18;4.13;;;;;;;9.43;100.00;99581.16;7398367;19;20010;-53
2022/04/22 01:37:56;;;;;;;5.80;3.58;;;;;;;9.44;100.00;99591.06;7397641;19;20018;-53
2022/04/22 01:40:22;;;;;;;17.17;4.43;;;;;;;9.48;100.00;99588.84;7402039;19;20018;-53
2022/04/22 01:42:48;;;;;;;12.80;4.85;;;;;;;9.54;100.00;99590.50;7399511;19;20010;-51
2022/04/22 01:45:14;;;;;;;8.13;3.45;;;;;;;9.50;100.00;99583.59;7397330;19;20014;-52
2022/04/22 01:47:41;;;;;;;17.85;2.50;;;;;;;9.50;100.00;99584.38;7398043;19;20459;-51
2022/04/22 01:50:08;;;;;;;17.50;4.20;;;;;;;9.52;100.00;99586.66;7397163;19;20136;-51
2022/04/22 01:52:37;;;;;;;17.83;3.20;;;;;;;9.56;100.00;99595.59;7396712;19;20462;-51
2022/04/22 01:55:04;;;;;;;8.35;3.63;;;;;;;9.54;100.00;99584.16;7397864;19;20017;-51
2022/04/22 01:57:30;;;;;;;9.15;3.40;;;;;;;9.56;100.00;99578.91;7395910;19;20474;-51
2022/04/22 01:59:59;;;;;;;6.07;2.85;;;;;;;9.57;100.00;99583.97;7396702;19;20022;-53
2022/04/22 02:02:25;;;;;;;10.77;4.40;;;;;;;9.55;100.00;99580.91;7398755;19;20006;-53
2022/04/22 02:04:52;;;;;;;6.45;2.80;;;;;;;9.62;100.00;99585.34;7396917;19;20006;-51
2022/04/22 02:07:18;;;;;;;15.05;4.15;;;;;;;9.65;100.00;99570.50;7399049;19;20014;-51
2022/04/22 02:09:44;;;;;;;11.48;3.08;;;;;;;9.70;100.00;99570.59;7397093;19;20008;-51
2022/04/22 02:12:10;;;;;;;9.65;3.72;;;;;;;9.73;100.00;99575.22;7397208;19;20015;-51
2022/04/22 02:14:36;;;;;;;14.98;3.42;;;;;;;9.78;100.00;99565.44;7397807;19;20459;-50
2022/04/22 02:17:03;;;;;;;11.38;3.42;;;;;;;9.81;100.00;99581.94;7395786;19;20014;-51
2022/04/22 02:19:29;;;;;;;9.55;2.53;;;;;;;9.89;100.00;99571.22;7398920;19;20423;-51
2022/04/22 02:21:56;;;;;;;9.52;3.30;;;;;;;10.00;100.00;99576.22;7395349;19;20013;-51
2022/04/22 02:24:22;;;;;;;10.75;3.03;;;;;;;10.07;100.00;99559.88;7398434;19;20014;-51
2022/04/22 02:29:34;;;;;;;4.90;3.20;;;;;;;10.21;100.00;99556.38;7395909;19;20011;-51
2022/04/22 02:32:00;;;;;;;3.95;2.92;;;;;;;10.25;100.00;99558.97;7394638;19;20011;-51
2022/04/22 02:34:26;;;;;;;11.10;3.00;;;;;;;10.27;100.00;99557.25;7397393;19;20042;-51
2022/04/22 02:36:53;;;;;;;12.85;3.92;;;;;;;10.32;100.00;99556.56;7394031;19;20478;-51
2022/04/22 02:39:19;;;;;;;7.18;3.83;;;;;;;10.34;100.00;99554.06;7396279;19;20010;-51
2022/04/22 02:47:15;;;;;;;15.40;3.83;;;;;;;10.51;100.00;99541.19;7397205;19;20013;-51
2022/04/22 02:49:44;;;;;;;8.77;3.28;;;;;;;10.50;100.00;99536.84;7395513;19;20007;-51
2022/04/22 02:52:12;;;;;;;3.67;2.58;;;;;;;10.49;100.00;99534.56;7394921;19;20019;-51
2022/04/22 02:54:38;;;;;;;9.13;2.13;;;;;;;10.47;100.00;99525.94;7395236;19;20014;-51
2022/04/22 02:57:05;;;;;;;5.18;1.95;;;;;;;10.43;100.00;99515.00;7395659;19;20029;-51
2022/04/22 02:59:32;;;;;;;9.07;2.88;;;;;;;10.39;100.00;99520.00;7396950;19;20351;-51
2022/04/22 03:01:59;;;;;;;6.68;3.83;;;;;;;10.38;100.00;99512.88;7396351;19;20077;-51
2022/04/22 03:04:26;;;;;;;2.70;2.30;;;;;;;10.34;100.00;99509.53;7398179;19;20014;-51
2022/04/22 03:06:55;;;;;;;5.85;3.00;;;;;;;10.31;100.00;99523.66;7393478;19;20392;-52
2022/04/22 03:09:22;;;;;;;2.05;1.88;;;;;;;10.29;100.00;99510.22;7394408;19;20347;-51
2022/04/22 03:11:48;;;;;;;11.90;2.70;;;;;;;10.28;100.00;99500.34;7395396;19;20018;-51
2022/04/22 03:14:14;;;;;;;2.58;1.77;;;;;;;10.28;100.00;99494.78;7396636;19;20007;-51
2022/04/22 03:16:42;;;;;;;8.88;2.80;;;;;;;10.27;100.00;99498.78;7395338;19;20466;-51
2022/04/22 03:19:08;;;;;;;3.45;1.65;;;;;;;10.28;100.00;99505.91;7394448;19;20022;-51
2022/04/22 03:21:34;;;;;;;2.65;1.77;;;;;;;10.25;100.00;99503.31;7398013;19;20025;-51
2022/04/22 03:24:01;;;;;;;5.72;2.88;;;;;;;10.23;100.00;99503.03;7395935;19;20074;-51
2022/04/22 03:26:27;;;;;;;6.82;2.70;;;;;;;10.21;100.00;99497.94;7395269;19;20002;-51
2022/04/22 03:28:54;;;;;;;5.82;2.90;;;;;;;10.19;100.00;99500.44;7394656;19;20507;-51
2022/04/22 03:31:20;;;;;;;3.55;2.15;;;;;;;10.22;100.00;99499.47;7396020;19;20047;-51
2022/04/22 03:33:46;;;;;;;3.55;2.33;;;;;;;10.23;100.00;99483.53;7395715;19;20010;-51
2022/04/22 03:36:12;;;;;;;5.20;3.30;;;;;;;10.31;100.00;99496.56;7393726;19;20011;-51
2022/04/22 03:38:40;;;;;;;2.22;1.88;;;;;;;10.39;100.00;99481.03;7395241;19;20014;-51
2022/04/22 03:41:06;;;;;;;6.63;2.75;;;;;;;10.44;100.00;99487.91;7395041;19;20029;-52
2022/04/22 03:43:32;;;;;;;10.60;3.55;;;;;;;10.49;100.00;99488.00;7394120;19;20014;-51
2022/04/22 03:45:59;;;;;;;5.00;2.72;;;;;;;10.57;100.00;99494.69;7393437;19;20378;-51
2022/04/22 03:48:25;;;;;;;5.63;2.75;;;;;;;10.59;100.00;99494.22;7393080;19;20010;-51
2022/04/22 03:50:51;;;;;;;7.20;2.28;;;;;;;10.61;100.00;99486.91;7393599;19;20022;-51
2022/04/22 03:53:18;;;;;;;6.88;3.38;;;;;;;10.59;100.00;99491.41;7392749;19;20011;-51
2022/04/22 03:55:45;;;;;;;3.97;2.90;;;;;;;10.58;100.00;99482.31;7392464;19;20006;-51
2022/04/22 03:58:12;;;;;;;4.28;2.53;;;;;;;10.60;100.00;99482.59;7393048;19;20014;-51
2022/04/22 04:00:46;;;;;;;4.80;3.05;;;;;;;10.63;100.00;99469.72;7394333;19;20018;-51
2022/04/22 04:03:17;;;;;;;5.63;2.65;;;;;;;10.68;100.00;99469.81;7392944;19;20021;-51
2022/04/22 04:05:49;;;;;;;5.35;2.42;;;;;;;10.72;100.00;99468.84;7397523;19;20021;-51
2022/04/22 04:08:17;;;;;;;8.07;3.13;;;;;;;10.71;100.00;99481.22;7394421;19;20094;-51
2022/04/22 04:16:13;;;;;;;13.07;3.88;;;;;;;10.76;100.00;99469.41;7391998;19;20019;-51
2022/04/22 04:18:41;;;;;;;2.67;1.92;;;;;;;10.71;100.00;99456.94;7397495;19;20011;-51
2022/04/22 04:23:55;;;;;;;1.35;1.20;;;;;;;10.68;100.00;99452.31;7393885;19;20018;-51
2022/04/22 04:26:24;;;;;;;7.07;3.50;;;;;;;10.70;100.00;99454.63;7391727;19;20015;-51
2022/04/22 04:28:51;;;;;;;4.20;2.00;;;;;;;10.65;100.00;99458.88;7393737;19;20010;-51
2022/04/22 04:31:18;;;;;;;5.93;1.98;;;;;;;10.61;100.00;99438.81;7397433;19;20018;-52
2022/04/22 04:33:45;;;;;;;3.92;2.83;;;;;;;10.62;100.00;99443.91;7391930;19;20026;-51
2022/04/22 04:36:12;;;;;;;4.57;2.30;;;;;;;10.64;100.00;99435.81;7391684;19;20018;-52
2022/04/22 04:38:42;;;;;;;8.13;3.10;;;;;;;10.63;100.00;99437.06;7391489;19;20074;-51
2022/04/22 04:41:09;;;;;;;9.07;2.95;;;;;;;10.60;100.00;99435.28;7394799;19;20007;-51
2022/04/22 04:43:38;;;;;;;5.50;2.70;;;;;;;10.57;100.00;99430.66;7398563;19;20010;-51
2022/04/22 04:46:04;;;;;;;5.57;2.13;;;;;;;10.56;100.00;99434.72;7399845;19;20037;-51
2022/04/22 04:48:31;;;;;;;6.40;2.90;;;;;;;10.60;100.00;99440.06;7400126;19;20086;-51
2022/04/22 04:50:57;;;;;;;6.22;2.28;;;;;;;10.57;100.00;99452.94;7398480;19;20006;-54
2022/04/22 04:53:23;;;;;;;5.72;2.15;;;;;;;10.61;100.00;99449.97;7398242;19;20015;-52
2022/04/22 04:55:50;;;;;;;2.92;1.77;;;;;;;10.61;100.00;99459.06;7399672;19;20019;-51
2022/04/22 04:58:17;;;;;;;3.53;2.58;;;;;;;10.65;100.00;99459.63;7401003;19;20099;-51
2022/04/22 05:00:45;;;;;;;2.53;2.13;;;;;;;10.69;100.00;99448.28;7401201;19;20014;-51
2022/04/22 05:03:11;;;;;;;2.35;1.23;;;;;;;10.71;100.00;99434.66;7401411;19;20014;-51
2022/04/22 05:05:38;;;;;;;4.28;2.58;;;;;;;10.71;100.00;99445.00;7399822;19;20011;-52
2022/04/22 05:08:06;;;;;;;3.80;2.60;;;;;;;10.75;100.00;99445.56;7400049;19;20030;-51
2022/04/22 05:10:34;;;;;;;2.45;2.25;;;;;;;10.77;100.00;99440.28;7399512;19;20029;-51
2022/04/22 05:13:01;;;;;;;2.05;1.60;;;;;;;10.76;100.00;99433.97;7398254;19;20011;-51
2022/04/22 05:15:30;;;;;;;2.58;1.92;;;;;;;10.79;100.00;99434.97;7401252;19;20034;-51
2022/04/22 05:17:57;;;;;;;1.77;1.00;;;;;;;10.85;100.00;99449.78;7398496;19;20650;-51
2022/04/22 05:20:27;;;;;;;6.55;2.80;;;;;;;10.86;100.00;99445.72;7401605;19;20086;-51
2022/04/22 05:22:54;;;;;;;3.72;1.65;;;;;;;10.92;100.00;99438.19;7398894;19;20022;-51
2022/04/22 05:25:22;;;;;;;5.03;1.65;;;;;;;10.92;100.00;99438.97;7399006;19;20010;-51
2022/04/22 05:27:49;;;;;;;2.90;1.40;;;;;;;10.93;100.00;99445.31;7400870;19;20014;-51
2022/04/22 05:33:05;;;;;;;6.10;2.17;;;;;;;10.96;100.00;99449.91;7399634;19;20007;-51
2022/04/22 05:35:32;;;;;;;2.70;2.35;;;;;;;10.98;100.00;99447.41;7403421;19;20335;-51
2022/04/22 05:40:46;;;;;;;3.28;2.03;;;;;;;11.14;100.00;99444.03;7401108;19;20030;-90
2022/04/22 05:43:12;;;;;;;1.92;1.73;;;;;;;11.22;100.00;99445.13;7413162;19;20022;-91
2022/04/22 05:45:38;;;;;;;6.25;1.75;;;;;;;11.27;100.00;99442.41;7408667;19;20029;-92
2022/04/22 05:48:05;;;;;;;6.03;2.22;;;;;;;11.30;100.00;99451.84;7406314;19;20090;-88
2022/04/22 05:50:32;;;;;;;3.00;2.25;;;;;;;11.30;100.00;99440.69;7406475;19;20034;-94
2022/04/22 05:52:59;;;;;;;3.95;1.60;;;;;;;11.33;100.00;99445.25;7397767;19;20375;-55
2022/04/22 05:55:27;;;;;;;2.20;1.65;;;;;;;11.38;100.00;99441.78;7395198;19;20010;-55
2022/04/22 05:57:54;;;;;;;4.55;2.53;;;;;;;11.41;100.00;99449.16;7398011;19;20010;-55
2022/04/22 06:00:23;;;;;;;5.78;3.03;;;;;;;11.45;100.00;99452.50;7398083;19;20015;-55
2022/04/22 06:02:50;;;;;;;3.30;1.13;;;;;;;11.48;100.00;99448.72;7397143;19;20121;-54
2022/04/22 06:05:18;;;;;;;2.88;1.27;;;;;;;11.49;100.00;99444.69;7396509;19;20010;-55
2022/04/22 06:07:45;;;;;;;3.75;2.20;;;;;;;11.52;100.00;99440.88;7398846;19;20014;-54
2022/04/22 06:10:31;;;;;;;2.42;1.52;;;;;;;11.55;100.00;99439.91;7398222;19;20006;-55
2022/04/22 06:12:59;;;;;;;5.93;2.33;;;;;;;11.59;100.00;99429.31;7401143;19;20332;-54
2022/04/22 06:15:25;;;;;;;12.95;2.95;;;;;;;11.61;100.00;99426.78;7398055;19;20010;-55
2022/04/22 06:17:52;;;;;;;3.58;1.63;;;;;;;11.63;100.00;99434.69;7397601;19;20018;-54
2022/04/22 06:20:18;;;;;;;4.93;1.88;;;;;;;11.68;100.00;99433.97;7394984;19;20529;-55
2022/04/22 06:22:44;;;;;;;4.07;1.88;;;;;;;11.71;100.00;99425.41;7396782;19;20097;-55
2022/04/22 06:25:11;;;;;;;2.30;1.48;;;;;;;11.74;100.00;99427.19;7397200;19;20449;-53
2022/04/22 06:27:42;;;;;;;3.10;2.00;;;;;;;11.75;100.00;99431.53;7397232;19;20002;-55
2022/04/22 06:30:10;;;;;;;;;;;;;;;11.81;100.00;99435.13;7398316;19;20475;-55
2022/04/22 06:32:39;;;;;;;8.32;3.97;;;;;;;11.89;100.00;99427.09;7397597;19;19919;-55
2022/04/22 06:35:07;;;;;;;4.75;1.73;;;;;;;11.92;100.00;99429.63;7396592;19;20037;-56
2022/04/22 06:37:36;;;;;;;2.80;1.67;;;;;;;11.98;100.00;99440.84;7394607;19;20017;-54
2022/04/22 06:45:47;;;;;;;1.48;1.38;;;;;;;12.06;100.00;99431.50;7395072;19;20017;-56
2022/04/22 06:48:19;;;;;;;1.30;1.17;;;;;;;12.09;100.00;99426.97;7397326;19;20010;-56
2022/04/22 06:50:50;;;;;;;3.22;1.42;;;;;;;12.17;100.00;99428.81;7396661;19;20035;-56
2022/04/22 06:53:19;;;;;;;6.85;2.78;;;;;;;12.27;100.00;99429.38;7396233;19;20046;-54
2022/04/22 06:55:47;;;;;;;7.15;2.33;;;;;;;12.41;100.00;99424.91;7396411;19;20072;-54
2022/04/22 06:58:17;;;;;;;5.85;2.17;;;;;;;12.54;100.00;99425.25;7396338;19;20011;-55
2022/04/22 07:00:45;;;;;;;4.32;2.13;;;;;;;12.65;100.00;99428.09;7396409;19;20014;-54
2022/04/22 07:03:13;;;;;;;4.28;2.55;;;;;;;12.73;100.00;99429.16;7399766;19;20014;-56
2022/04/22 07:05:41;;;;;;;8.45;1.67;;;;;;;12.80;100.00;99434.25;7393688;19;20437;-55
2022/04/22 07:08:13;;;;;;;1.58;1.17;;;;;;;12.87;100.00;99431.00;7396344;19;20018;-54
2022/04/22 07:10:43;;;;;;;3.63;1.88;;;;;;;12.94;100.00;99427.72;7396590;19;20015;-54
2022/04/22 07:13:10;;;;;;;9.18;2.67;;;;;;;13.03;100.00;99430.31;7399977;19;20349;-55
2022/04/22 07:15:37;;;;;;;4.75;1.83;;;;;;;13.04;100.00;99428.28;7395226;19;20070;-54
2022/04/22 07:18:04;;;;;;;3.22;1.75;;;;;;;13.03;100.00;99430.31;7393824;19;20131;-55
2022/04/22 07:20:31;;;;;;;1.90;1.48;;;;;;;12.98;100.00;99428.25;7396107;19;20017;-55
2022/04/22 07:22:59;;;;;;;4.00;2.30;;;;;;;13.02;100.00;99422.41;7396116;19;20070;-55
2022/04/22 07:25:27;;;;;;;4.78;1.48;;;;;;;13.09;100.00;99419.94;7394834;19;20011;-56
2022/04/22 07:27:53;;;;;;;5.80;1.85;;;;;;;13.13;100.00;99422.47;7398230;19;20014;-55
2022/04/22 07:30:21;;;;;;;9.55;2.28;;;;;;;13.20;100.00;99419.97;7393416;19;20435;-56
2022/04/22 07:32:49;;;;;;;4.80;2.47;;;;;;;13.28;100.00;99431.41;7398808;19;20022;-55
2022/04/22 07:35:17;;;;;;;6.07;2.55;;;;;;;13.32;100.00;99418.72;7394140;19;20015;-55
2022/04/22 07:37:46;;;;;;;3.25;1.55;;;;;;;13.38;100.00;99427.13;7392334;19;20029;-55
2022/04/22 07:40:13;;;;;;;4.47;1.25;;;;;;;13.45;100.00;99430.19;7395760;19;20024;-55
2022/04/22 07:48:19;;;;;;;2.80;1.75;;;;;;;13.66;100.00;99439.16;7392368;19;20019;-56
2022/04/22 07:50:47;;;;;;;5.03;2.42;;;;;;;13.71;100.00;99440.44;7396212;19;20135;-56
2022/04/22 07:53:17;;;;;;;4.32;2.33;;;;;;;13.79;100.00;99452.63;7394033;19;20062;-56
2022/04/22 07:55:44;;;;;;;2.63;2.00;;;;;;;13.78;100.00;99437.09;7392430;19;20011;-56
2022/04/22 07:58:13;;;;;;;5.97;2.17;;;;;;;13.80;100.00;99438.13;7393175;19;20011;-56
2022/04/22 08:00:46;;;;;;;4.40;2.15;;;;;;;13.80;100.00;99442.94;7394684;19;20078;-56
2022/04/22 08:03:15;;;;;;;4.15;2.45;;;;;;;13.80;100.00;99428.97;7393835;19;20536;-56
2022/04/22 08:05:42;;;;;;;2.42;1.67;;;;;;;13.81;100.00;99430.50;7394487;19;20014;-56
2022/04/22 08:08:09;;;;;;;4.60;2.38;;;;;;;13.81;100.00;99434.06;7395313;19;20015;-56
2022/04/22 08:10:36;;;;;;;6.07;2.30;;;;;;;13.81;100.00;99430.50;7392796;19;20010;-56
2022/04/22 08:13:05;;;;;;;2.22;1.55;;;;;;;13.80;100.00;99429.72;7398215;19;20032;-56
2022/04/22 08:15:33;;;;;;;8.30;1.77;;;;;;;13.91;100.00;99428.97;7396354;19;20034;-55
2022/04/22 08:18:00;;;;;;;4.50;1.70;;;;;;;13.95;100.00;99427.44;7395536;19;20018;-55
2022/04/22 08:20:26;;;;;;;6.43;2.28;;;;;;;13.99;100.00;99435.59;7393250;19;20074;-55
2022/04/22 08:22:52;;;;;;;2.33;1.58;;;;;;;13.95;100.00;99429.47;7392429;19;20018;-55
2022/04/22 08:25:18;;;;;;;2.45;1.70;;;;;;;13.99;100.00;99432.81;7395687;19;20017;-55
2022/04/22 08:27:46;;;;;;;5.22;2.42;;;;;;;14.06;100.00;99426.69;7392630;19;20086;-54
2022/04/22 08:30:12;;;;;;;12.68;1.77;;;;;;;14.06;100.00;99435.84;7392356;19;20405;-55
2022/04/22 08:32:38;;;;;;;6.88;3.00;;;;;;;14.11;100.00;99431.53;7392090;19;20007;-55
2022/04/22 08:35:05;;;;;;;6.50;2.22;;;;;;;14.21;100.00;99424.38;7395011;19;20343;-55
2022/04/22 08:37:31;;;;;;;1.75;1.60;;;;;;;14.31;100.00;99428.47;7392750;19;20006;-55
2022/04/22 08:39:58;;;;;;;1.30;0.95;;;;;;;14.35;100.00;99429.75;7395631;19;20010;-55
2022/04/22 08:42:25;;;;;;;4.65;2.50;;;;;;;14.42;100.00;99434.06;7395422;19;20017;-55
2022/04/22 08:44:52;;;;;;;6.80;2.67;;;;;;;14.48;100.00;99429.22;7395173;19;20075;-55
2022/04/22 08:50:12;;;;;;;4.43;2.47;;;;;;;14.76;100.00;99413.09;7391442;19;20111;-55
2022/04/22 08:52:42;;;;;;;2.85;2.30;;;;;;;14.95;100.00;99430.09;7393740;19;20020;-55
2022/04/22 08:55:09;;;;;;;7.03;2.45;;;;;;;15.16;100.00;99432.03;7392678;19;20082;-55
2022/04/22 08:57:36;;;;;;;7.60;2.45;;;;;;;15.37;100.00;99426.06;7390074;19;20010;-55
2022/04/22 09:00:07;;;;;;;8.60;2.75;;;;;;;15.46;100.00;99434.22;7390413;19;20010;-55
2022/04/22 09:02:34;;;;;;;2.88;1.75;;;;;;;15.56;100.00;99421.38;7391783;19;20011;-55
2022/04/22 09:05:00;;;;;;;4.97;1.92;;;;;;;15.60;100.00;99436.66;7393597;19;20549;-55
2022/04/22 09:07:29;;;;;;;7.85;2.30;;;;;;;15.73;100.00;99431.22;7391884;19;20452;-55
2022/04/22 09:09:55;;;;;;;7.47;2.03;;;;;;;15.88;100.00;99425.22;7391609;19;20007;-55
2022/04/22 09:12:23;;;;;;;2.70;2.03;;;;;;;15.97;100.00;99427.72;7391076;19;20015;-55
2022/04/22 09:14:54;;;;;;;2.15;1.77;;;;;;;16.02;100.00;99424.09;7393650;19;20042;-56
2022/04/22 09:17:28;;;;;;;2.58;1.48;;;;;;;15.99;100.00;99425.16;7389841;19;20400;-56
2022/04/22 09:19:57;;;;;;;3.70;1.75;;;;;;;16.03;100.00;99422.81;7393256;19;20018;-56
2022/04/22 09:22:34;;;;;;;4.75;2.45;;;;;;;16.13;100.00;99423.25;7390576;19;20014;-55
2022/04/22 09:25:01;;;;;;;9.23;2.30;;;;;;;16.27;100.00;99422.09;7391664;19;20350;-56
2022/04/22 09:27:37;;;;;;;4.85;1.92;;;;;;;16.40;100.00;99422.97;7390544;19;20077;-55
2022/04/22 09:30:07;;;;;;;5.18;2.15;;;;;;;16.67;100.00;99416.31;7395848;19;20014;-56
2022/04/22 09:32:35;;;;;;;1.53;1.23;;;;;;;16.93;100.00;99415.03;7397406;19;20401;-55
2022/04/22 09:35:12;;;;;;;2.85;1.20;;;;;;;17.14;100.00;99413.22;7399634;19;20247;-56
2022/04/22 09:43:45;;;;;;;7.75;2.97;;;;;;;17.12;100.00;99394.06;7397374;19;20033;-55
2022/04/22 09:46:24;;;;;;;3.17;1.38;;;;;;;17.33;100.00;99397.09;7402583;19;20348;-56
2022/04/22 09:48:52;;;;;;;4.18;1.92;;;;;;;17.48;100.00;99383.31;7396620;19;20018;-55
2022/04/22 09:51:30;;;;;;;3.70;2.00;;;;;;;17.59;100.00;99388.81;7402647;19;20331;-55
2022/04/22 09:54:10;;;;;;;6.97;1.55;;;;;;;17.88;100.00;99390.66;7397140;19;20066;-55
2022/04/22 09:56:41;;;;;;;3.05;1.58;;;;;;;18.11;100.00;99394.63;7398004;19;20466;-55
2022/04/22 09:59:24;;;;;;;10.02;2.88;;;;;;;18.14;100.00;99389.97;7399181;19;20014;-55
2022/04/22 10:01:51;;;;;;;8.82;2.22;;;;;;;18.39;100.00;99382.06;7397921;19;20026;-56
2022/04/22 10:04:18;;;;;;;3.75;1.10;;;;;;;18.35;100.00;99378.81;7399149;19;20010;-56
2022/04/22 10:06:46;;;;;;;5.93;1.88;;;;;;;18.40;100.00;99390.00;7399726;19;20015;-56
2022/04/22 10:09:16;;;;;;;4.43;1.50;;;;;;;18.64;100.00;99394.72;7395793;19;20010;-56
2022/04/22 10:11:48;;;;;;;1.98;1.38;;;;;;;18.70;100.00;99389.72;7396043;19;20459;-56
2022/04/22 10:14:24;;;;;;;3.65;0.85;;;;;;;18.56;100.00;99383.31;7398485;19;20018;-56
2022/04/22 10:16:51;;;;;;;3.35;1.15;;;;;;;18.24;100.00;99379.00;7395892;19;20027;-56
2022/04/22 10:19:17;;;;;;;2.88;1.30;;;;;;;18.06;100.00;99378.56;7398051;19;20011;-56
2022/04/22 10:21:45;;;;;;;3.22;1.58;;;;;;;17.91;100.00;99375.47;7394519;19;20078;-56
2022/04/22 10:24:13;;;;;;;1.65;1.15;;;;;;;17.97;100.00;99364.91;7396660;19;20015;-56
2022/04/22 10:26:40;;;;;;;5.85;1.67;;;;;;;18.28;100.00;99371.03;7396633;19;20029;-56
2022/04/22 10:29:09;;;;;;;6.72;1.02;;;;;;;18.61;100.00;99376.03;7398820;19;20038;-54
2022/04/22 10:31:35;;;;;;;5.53;1.05;;;;;;;18.83;100.00;99370.72;7396795;19;20018;-54
2022/04/22 10:34:06;;;;;;;1.65;1.00;;;;;;;19.04;100.00;99367.97;7394714;19;20023;-55
2022/04/22 10:36:33;;;;;;;4.25;1.77;;;;;;;19.09;100.00;99371.97;7398157;19;20013;-55
2022/04/22 10:38:59;;;;;;;3.60;1.98;;;;;;;19.10;100.00;99354.47;7393490;19;20034;-54
2022/04/22 10:41:25;;;;;;;5.30;2.17;;;;;;;19.00;100.00;99342.13;7395043;19;20021;-53
2022/04/22 10:49:53;;;;;;;1.25;0.75;;;;;;;18.14;100.00;99345.63;7396038;19;20021;-55
2022/04/22 10:52:21;;;;;;;6.53;0.73;;;;;;;18.36;100.00;99326.78;7396158;19;20026;-56
2022/04/22 10:54:53;;;;;;;4.15;1.30;;;;;;;18.46;100.00;99322.25;7397176;19;20007;-55
2022/04/22 10:57:29;;;;;;;2.53;1.00;;;;;;;18.58;100.00;99326.38;7394282;19;20482;-55
2022/04/22 11:00:07;;;;;;;1.08;0.60;;;;;;;18.81;100.00;99316.13;7395270;19;20491;-56
2022/04/22 11:02:36;;;;;;;23.25;1.40;;;;;;;19.30;100.00;99317.06;7396956;19;20432;-55
2022/04/22 11:05:20;;;;;;;4.78;0.70;;;;;;;19.70;100.00;99305.63;7399802;19;20006;-54
2022/04/22 11:07:56;;;;;;;3.78;0.52;;;;;;;19.92;96.63;99305.81;7397002;19;20010;-55
2022/04/22 11:10:48;;;;;;;0.55;0.32;;;;;;;19.95;93.62;99309.59;7396952;19;20011;-54
2022/04/22 11:13:30;;;;;;;0.47;0.30;;;;;;;19.83;88.32;99309.13;7395714;19;20462;-54
2022/04/22 11:16:00;;;;;;;3.25;0.28;;;;;;;19.81;90.76;99302.53;7394781;19;20006;-55
2022/04/22 11:18:26;;;;;;;0.90;0.40;;;;;;;19.79;89.69;99305.16;7394596;19;20018;-55
2022/04/22 11:21:04;;;;;;;0.75;0.47;;;;;;;19.85;87.71;99317.06;7398036;19;20010;-56
2022/04/22 11:23:38;;;;;;;0.93;0.38;;;;;;;19.87;85.04;99294.66;7395089;19;20078;-55
2022/04/22 11:26:05;;;;;;;0.57;0.25;;;;;;;19.90;84.56;99299.22;7398712;19;20015;-56
2022/04/22 11:28:38;;;;;;;8.77;0.43;;;;;;;19.89;82.03;99292.03;7395016;19;20015;-55
2022/04/22 11:31:10;;;;;;;0.95;0.68;;;;;;;19.80;79.57;99301.75;7394425;19;20007;-55
2022/04/22 11:34:02;;;;;;;0.10;0.10;;;;;;;19.79;78.45;99285.38;7394474;19;20011;-55
2022/04/22 11:36:29;;;;;;;0.35;0.08;;;;;;;19.82;78.52;99285.00;7393219;19;20034;-55
2022/04/22 11:38:56;;;;;;;6.18;0.30;;;;;;;19.91;76.87;99283.75;7394776;19;20003;-54
2022/04/22 11:41:22;;;;;;;0.10;0.10;;;;;;;19.96;77.80;99285.69;7393879;19;20014;-54
2022/04/22 11:43:49;;;;;;;1.30;0.20;;;;;;;19.96;72.51;99277.97;7394598;19;20015;-54
2022/04/22 11:46:17;;;;;;;0.88;0.40;;;;;;;19.90;73.09;99293.56;7394007;19;20340;-54
2022/04/22 11:48:48;;;;;;;0.20;0.10;;;;;;;19.79;74.04;99283.31;7395090;19;20034;-54
2022/04/22 11:51:15;;;;;;;0.10;0.00;;;;;;;19.76;73.66;99295.69;7397021;19;20010;-54
2022/04/22 11:53:52;;;;;;;1.30;1.05;;;;;;;19.75;74.08;99284.97;7392013;19;20403;-55
2022/04/22 11:56:20;;;;;;;1.48;0.20;;;;;;;19.75;72.36;99279.31;7393304;19;20007;-54
2022/04/22 11:58:54;;;;;;;11.05;1.00;;;;;;;19.64;71.50;99289.56;7394113;19;20356;-55
2022/04/22 12:06:58;;;;;;;3.45;0.95;;;;;;;19.46;71.59;99284.13;7397653;19;20048;-54
2022/04/22 12:09:25;;;;;;;1.30;0.40;;;;;;;19.57;72.27;99284.63;7393547;19;20458;-54
2022/04/22 12:11:51;;;;;;;0.10;0.10;;;;;;;19.73;73.14;99290.41;7393599;19;20352;-55
2022/04/22 12:14:25;;;;;;;0.95;0.40;;;;;;;19.85;72.67;99278.25;7395033;19;20474;-54
2022/04/22 12:16:59;;;;;;;0.90;0.15;;;;;;;19.97;72.05;99287.19;7391758;19;20043;-54
2022/04/22 12:19:26;;;;;;;0.55;0.20;;;;;;;19.68;70.81;99289.97;7393603;19;20025;-54
2022/04/22 12:21:54;;;;;;;1.95;0.57;;;;;;;19.57;69.44;99284.63;7393300;19;20007;-54
2022/04/22 12:24:21;;;;;;;0.73;0.32;;;;;;;19.62;70.62;99275.22;7394830;19;20011;-54
2022/04/22 12:26:48;;;;;;;0.10;0.10;;;;;;;19.77;70.99;99268.22;7391320;19;20022;-54
2022/04/22 12:29:25;;;;;;;0.10;0.10;;;;;;;20.01;71.57;99271.38;7392486;19;20034;-54
2022/04/22 12:31:55;;;;;;;1.10;0.10;;;;;;;20.12;71.57;99264.69;7392473;19;20011;-54